Time;durP1;ratioP1;P1;durP2;ratioP2;P2;SDS_P1;SDS_P2;PMS_P1;PMS_P2;Temp;Humidity;BMP_temperature;BMP_pressure;BME280_temperature;BME280_humidity;BME280_pressure;Samples;Min_cycle;Max_cycle;Signal;HPM_P1;HPM_P2
2021/12/28 00:01:14;;;;;;;9.50;4.20;;;;;;;-7.12;76.23;99100.17;101875;1317;74568;-19
2021/12/28 00:03:44;;;;;;;12.90;4.40;;;;;;;-6.96;74.95;99100.86;101780;1320;61311;-20
2021/12/28 00:06:13;;;;;;;10.20;5.00;;;;;;;-7.13;75.45;99102.71;101639;1316;61952;-19
2021/12/28 00:08:42;;;;;;;8.50;4.10;;;;;;;-7.38;75.84;99103.09;101829;1319;74737;-20
2021/12/28 00:11:11;;;;;;;7.40;3.70;;;;;;;-7.62;76.48;99102.23;101834;1316;74300;-19
2021/12/28 00:13:40;;;;;;;14.00;5.40;;;;;;;-7.84;77.28;99097.65;101733;1319;74731;-19
2021/12/28 00:18:48;;;;;;;16.50;6.20;;;;;;;-7.34;77.16;99093.09;101592;1316;61232;-20
2021/12/28 00:21:18;;;;;;;14.50;6.40;;;;;;;-6.85;75.28;99095.03;101703;1319;74769;-20
2021/12/28 00:23:47;;;;;;;22.90;9.10;;;;;;;-6.81;74.70;99098.04;101640;1317;74675;-19
2021/12/28 00:26:15;;;;;;;10.40;5.30;;;;;;;-6.97;74.96;99099.70;101785;1319;72901;-19
2021/12/28 00:28:44;;;;;;;10.70;4.60;;;;;;;-7.23;75.59;99097.58;101644;1316;62120;-20
2021/12/28 00:31:15;;;;;;;9.00;5.10;;;;;;;-7.44;76.23;99090.46;101725;1320;61092;-19
2021/12/28 00:33:45;;;;;;;10.40;5.50;;;;;;;-7.70;77.01;99086.10;101827;1320;75273;-19
2021/12/28 00:36:14;;;;;;;7.20;3.60;;;;;;;-7.91;77.73;99083.52;101823;1317;74204;-20
2021/12/28 00:38:42;;;;;;;5.90;3.10;;;;;;;-7.81;77.74;99088.86;101782;1317;74443;-19
2021/12/28 00:41:11;;;;;;;7.40;4.60;;;;;;;-7.15;76.88;99092.11;101875;1317;61195;-19
2021/12/28 00:43:39;;;;;;;11.20;5.70;;;;;;;-6.85;75.33;99087.11;101718;1319;62113;-20
2021/12/28 00:46:07;;;;;;;8.50;5.10;;;;;;;-6.88;75.12;99087.12;101723;1316;74015;-19
2021/12/28 00:48:36;;;;;;;11.60;5.60;;;;;;;-7.11;75.09;99085.48;101813;1319;74605;-20
2021/12/28 00:51:05;;;;;;;7.90;4.10;;;;;;;-7.38;75.99;99082.67;101763;1322;71732;-19
2021/12/28 00:53:33;;;;;;;10.00;4.60;;;;;;;-7.62;76.74;99078.97;101947;1320;61960;-20
2021/12/28 00:56:02;;;;;;;9.40;5.20;;;;;;;-7.66;77.47;99077.80;101948;1317;61204;-19
2021/12/28 00:58:32;;;;;;;2.30;1.50;;;;;;;-6.99;76.13;99080.30;101692;1317;74819;-19
2021/12/28 01:01:00;;;;;;;7.00;4.00;;;;;;;-6.64;74.88;99085.04;101958;1317;75103;-20
2021/12/28 01:03:29;;;;;;;10.60;5.30;;;;;;;-6.79;74.42;99081.80;101837;1323;74222;-19
2021/12/28 01:05:58;;;;;;;11.00;6.10;;;;;;;-7.11;75.54;99078.75;101817;1317;61232;-19
2021/12/28 01:08:27;;;;;;;8.30;4.80;;;;;;;-7.35;75.95;99076.23;101831;1317;61249;-19
2021/12/28 01:10:55;;;;;;;7.20;2.50;;;;;;;-7.54;76.53;99078.25;101886;1317;74752;-20
2021/12/28 01:13:24;;;;;;;9.10;4.50;;;;;;;-7.71;77.08;99075.82;101945;1316;75227;-20
2021/12/28 01:15:53;;;;;;;7.90;3.80;;;;;;;-7.44;77.40;99073.95;101754;1317;74674;-20
2021/12/28 01:18:21;;;;;;;7.60;3.20;;;;;;;-6.67;75.37;99066.98;101943;1316;61466;-20
2021/12/28 01:20:51;;;;;;;7.20;3.70;;;;;;;-6.45;73.92;99070.96;101989;1316;61230;-20
2021/12/28 01:23:19;;;;;;;7.80;4.20;;;;;;;-6.68;73.89;99078.48;102147;1316;74794;-20
2021/12/28 01:25:47;;;;;;;4.90;3.10;;;;;;;-7.00;74.83;99074.25;102116;1312;75083;-20
2021/12/28 01:28:16;;;;;;;3.80;2.90;;;;;;;-7.18;75.37;99070.19;102250;1317;74506;-20
2021/12/28 01:30:45;;;;;;;7.00;2.80;;;;;;;-7.35;76.04;99060.73;102262;1314;62217;-19
2021/12/28 01:33:16;;;;;;;8.80;4.50;;;;;;;-7.56;76.63;99059.70;102137;1313;61863;-20
2021/12/28 01:35:45;;;;;;;6.60;3.80;;;;;;;-7.41;77.49;99058.39;102202;1314;72883;-19
2021/12/28 01:38:13;;;;;;;5.40;3.50;;;;;;;-6.72;75.49;99053.20;102248;1313;75901;-20
2021/12/28 01:40:41;;;;;;;7.80;4.10;;;;;;;-6.56;74.53;99051.65;102243;1313;74396;-20
2021/12/28 01:43:15;;;;;;;6.30;3.80;;;;;;;-6.68;74.50;99059.23;102277;1314;61049;-20
2021/12/28 01:45:49;;;;;;;6.70;4.90;;;;;;;-6.98;75.15;99063.59;102166;1317;61231;-20
2021/12/28 01:48:24;;;;;;;;;;;;;;;-7.27;76.20;99058.96;101817;1317;75146;-20
2021/12/28 01:50:55;;;;;;;17.50;7.60;;;;;;;-7.43;76.85;99057.23;102072;1316;76100;-20
2021/12/28 01:53:24;;;;;;;10.30;6.00;;;;;;;-7.61;77.51;99057.72;102026;1316;73613;-19
2021/12/28 01:55:53;;;;;;;6.00;3.70;;;;;;;-7.03;76.66;99054.52;102278;1316;62163;-20
2021/12/28 01:58:22;;;;;;;9.60;4.60;;;;;;;-6.59;75.14;99063.19;102059;1317;61839;-20
2021/12/28 02:00:51;;;;;;;9.50;5.50;;;;;;;-6.60;74.74;99058.13;102283;1314;74864;-19
2021/12/28 02:03:20;;;;;;;9.70;3.60;;;;;;;-6.70;74.86;99056.38;102328;1313;75089;-20
2021/12/28 02:05:50;;;;;;;14.90;5.60;;;;;;;-6.94;75.52;99062.53;101773;1320;74403;-20
2021/12/28 02:08:18;;;;;;;9.90;5.90;;;;;;;-7.22;76.36;99064.65;102244;1313;61182;-19
2021/12/28 02:10:47;;;;;;;13.50;6.70;;;;;;;-7.40;76.90;99060.58;102256;1314;61903;-19
2021/12/28 02:13:16;;;;;;;12.60;6.50;;;;;;;-7.58;78.19;99056.85;102106;1317;74627;-19
2021/12/28 02:15:45;;;;;;;11.60;5.80;;;;;;;-6.87;76.72;99053.68;102314;1316;75767;-20
2021/12/28 02:18:14;;;;;;;12.50;7.30;;;;;;;-6.38;74.97;99049.08;102303;1313;74205;-20
2021/12/28 02:20:44;;;;;;;13.10;6.00;;;;;;;-6.37;74.26;99046.53;101930;1317;61170;-20
2021/12/28 02:23:12;;;;;;;14.60;6.70;;;;;;;-6.56;74.50;99044.91;102037;1319;61152;-20
2021/12/28 02:25:47;;;;;;;17.80;6.80;;;;;;;-6.80;75.43;99049.56;101765;1317;75514;-19
2021/12/28 02:28:16;;;;;;;6.00;3.90;;;;;;;-7.01;75.99;99053.48;102274;1316;74964;-20
2021/12/28 02:30:46;;;;;;;11.20;5.20;;;;;;;-7.20;76.49;99058.90;102234;1314;71626;-20
2021/12/28 02:33:16;;;;;;;10.80;6.40;;;;;;;-7.39;77.27;99059.91;101657;1316;61152;-19
2021/12/28 02:35:44;;;;;;;5.70;3.20;;;;;;;-7.41;77.79;99060.59;102160;1316;61254;-19
2021/12/28 02:38:13;;;;;;;13.30;5.80;;;;;;;-6.90;77.10;99062.48;102238;1313;74344;-20
2021/12/28 02:40:42;;;;;;;9.40;4.70;;;;;;;-6.59;75.59;99055.76;101691;1316;73260;-20
2021/12/28 02:43:13;;;;;;;8.90;5.00;;;;;;;-6.61;75.43;99056.95;101722;1316;73470;-20
2021/12/28 02:45:53;;;;;;;9.60;5.30;;;;;;;-6.77;75.56;99061.19;101869;1316;61147;-20
2021/12/28 02:48:27;;;;;;;12.60;6.00;;;;;;;-7.01;75.87;99064.30;101895;1314;61221;-20
2021/12/28 02:50:59;;;;;;;6.10;3.90;;;;;;;-7.21;76.92;99064.81;102137;1313;75661;-20
2021/12/28 02:53:27;;;;;;;11.60;6.00;;;;;;;-7.36;77.52;99060.55;101702;1317;75922;-20
2021/12/28 02:55:55;;;;;;;8.80;4.70;;;;;;;-7.54;78.43;99056.48;102075;1314;74154;-19
2021/12/28 02:58:29;;;;;;;12.00;6.10;;;;;;;-7.41;78.67;99056.55;102196;1317;62841;-20
2021/12/28 03:01:13;;;;;;;12.70;5.80;;;;;;;-6.63;76.75;99053.08;101945;1316;62504;-20
2021/12/28 03:03:43;;;;;;;16.40;6.20;;;;;;;-6.23;74.68;99053.29;102065;1314;75733;-20
2021/12/28 03:06:13;;;;;;;11.40;4.90;;;;;;;-6.42;74.63;99052.34;101930;1314;76113;-20
2021/12/28 03:08:43;;;;;;;11.10;5.50;;;;;;;-6.58;74.96;99053.70;101851;1313;74636;-20
2021/12/28 03:11:12;;;;;;;11.10;6.50;;;;;;;-6.87;76.19;99049.30;101929;1317;61958;-20
2021/12/28 03:13:43;;;;;;;13.50;5.70;;;;;;;-7.02;76.24;99047.42;102172;1317;61182;-20
2021/12/28 03:16:11;;;;;;;10.70;4.70;;;;;;;-7.15;77.17;99054.46;102082;1317;75409;-20
2021/12/28 03:18:49;;;;;;;11.10;4.30;;;;;;;-6.80;77.09;99049.05;102258;1313;76009;-19
2021/12/28 03:21:19;;;;;;;12.20;4.70;;;;;;;-6.23;75.30;99048.73;102063;1319;73431;-20
2021/12/28 03:23:47;;;;;;;8.10;3.70;;;;;;;-6.10;74.71;99048.21;101782;1315;61259;-19
2021/12/28 03:26:16;;;;;;;21.10;6.20;;;;;;;-6.22;74.62;99047.19;102255;1313;61174;-20
2021/12/28 03:28:45;;;;;;;12.30;6.10;;;;;;;-6.45;75.06;99052.21;102276;1316;75397;-20
2021/12/28 03:31:16;;;;;;;7.20;4.20;;;;;;;-6.74;75.59;99050.68;101983;1314;73336;-20
2021/12/28 03:33:46;;;;;;;13.40;8.00;;;;;;;-6.99;76.78;99049.75;101754;1314;74453;-19
2021/12/28 03:36:15;;;;;;;13.40;6.10;;;;;;;-7.13;77.43;99053.11;101765;1320;61943;-20
2021/12/28 03:38:44;;;;;;;11.20;6.00;;;;;;;-6.69;76.90;99058.71;101891;1316;61222;-19
2021/12/28 03:41:13;;;;;;;8.20;4.40;;;;;;;-6.02;75.49;99056.88;102239;1316;75422;-20
2021/12/28 03:43:43;;;;;;;11.90;6.10;;;;;;;-5.97;74.42;99057.81;101881;1317;76330;-20
2021/12/28 03:46:12;;;;;;;16.70;7.50;;;;;;;-6.19;74.62;99056.61;101682;1316;73427;-20
2021/12/28 03:48:41;;;;;;;7.80;4.50;;;;;;;-6.45;75.53;99054.06;102178;1313;61113;-20
2021/12/28 03:51:10;;;;;;;18.50;7.90;;;;;;;-6.72;76.36;99047.95;102148;1316;62163;-20
2021/12/28 03:53:38;;;;;;;16.20;8.10;;;;;;;-6.91;76.77;99044.61;102044;1317;74038;-19
2021/12/28 03:56:07;;;;;;;12.90;6.10;;;;;;;-7.23;78.49;99044.25;102168;1317;76117;-19
2021/12/28 03:58:38;;;;;;;22.50;7.90;;;;;;;-6.78;78.01;99047.51;101736;1317;74334;-20
2021/12/28 04:01:07;;;;;;;18.30;8.10;;;;;;;-6.13;75.50;99046.21;101799;1319;61215;-19
2021/12/28 04:03:36;;;;;;;14.60;6.90;;;;;;;-5.80;74.72;99048.27;102130;1316;62042;-19
2021/12/28 04:06:08;;;;;;;18.10;6.50;;;;;;;-6.01;74.49;99043.19;101912;1319;75609;-20
2021/12/28 04:08:39;;;;;;;19.80;7.70;;;;;;;-6.38;75.53;99045.02;102123;1313;75386;-19
2021/12/28 04:13:49;;;;;;;17.80;7.70;;;;;;;-6.80;76.89;99042.98;102113;1319;61234;-19
2021/12/28 04:16:18;;;;;;;20.40;8.20;;;;;;;-7.04;77.88;99036.98;102225;1317;61256;-20
2021/12/28 04:18:46;;;;;;;15.60;7.10;;;;;;;-7.14;78.99;99035.23;102203;1313;74739;-19
2021/12/28 04:21:15;;;;;;;19.70;8.10;;;;;;;-6.57;77.36;99030.40;102242;1317;76125;-19
2021/12/28 04:23:44;;;;;;;20.90;11.00;;;;;;;-6.01;75.74;99032.69;101784;1317;71648;-19
2021/12/28 04:26:12;;;;;;;21.70;10.70;;;;;;;-6.15;75.34;99025.13;101963;1319;61240;-19
2021/12/28 04:28:48;;;;;;;12.80;6.70;;;;;;;-6.40;76.24;99027.31;102241;1317;61131;-20
2021/12/28 04:31:17;;;;;;;15.30;5.60;;;;;;;-6.67;77.10;99026.30;102194;1318;75444;-20
2021/12/28 04:33:46;;;;;;;17.40;8.30;;;;;;;-6.76;77.28;99033.64;102255;1313;75857;-19
2021/12/28 04:36:15;;;;;;;14.30;8.00;;;;;;;-6.97;78.21;99029.98;102187;1319;73000;-20
2021/12/28 04:38:44;;;;;;;14.30;5.80;;;;;;;-7.14;79.22;99023.58;101715;1314;61243;-20
2021/12/28 04:41:12;;;;;;;14.00;7.50;;;;;;;-6.68;78.34;99017.69;102132;1313;61186;-19
2021/12/28 04:43:41;;;;;;;13.70;7.80;;;;;;;-6.09;76.33;99019.96;102211;1317;75363;-19
2021/12/28 04:46:10;;;;;;;14.70;7.60;;;;;;;-5.96;75.29;99021.46;102074;1316;74735;-20
2021/12/28 04:48:38;;;;;;;16.60;5.90;;;;;;;-6.04;75.65;99019.73;102084;1319;73554;-19
2021/12/28 04:51:06;;;;;;;22.20;10.40;;;;;;;-6.31;76.12;99020.79;102160;1317;61209;-20
2021/12/28 04:53:35;;;;;;;14.90;6.70;;;;;;;-6.54;76.83;99021.91;102318;1317;61531;-19
2021/12/28 04:56:04;;;;;;;15.40;7.20;;;;;;;-6.83;77.70;99021.91;102258;1313;75839;-19
2021/12/28 04:58:32;;;;;;;19.70;9.80;;;;;;;-7.01;78.72;99026.48;101796;1316;76546;-20
2021/12/28 05:01:00;;;;;;;15.20;8.20;;;;;;;-6.99;79.37;99024.77;102138;1316;74251;-19
2021/12/28 05:03:30;;;;;;;22.80;9.80;;;;;;;-6.29;77.48;99025.81;102231;1319;61214;-19
2021/12/28 05:05:58;;;;;;;16.90;9.10;;;;;;;-5.98;76.22;99025.38;102300;1313;61229;-19
2021/12/28 05:08:27;;;;;;;18.90;9.20;;;;;;;-5.90;75.66;99026.11;102273;1320;75610;-20
2021/12/28 05:10:56;;;;;;;17.80;8.70;;;;;;;-6.11;75.81;99028.27;102241;1313;75982;-19
2021/12/28 05:13:24;;;;;;;15.40;8.00;;;;;;;-6.41;76.90;99024.10;101902;1320;74641;-20
2021/12/28 05:15:53;;;;;;;13.40;7.60;;;;;;;-6.61;77.61;99022.84;102284;1316;61103;-19
2021/12/28 05:18:21;;;;;;;19.50;8.70;;;;;;;-6.76;78.48;99020.33;102291;1317;61097;-20
2021/12/28 05:20:50;;;;;;;18.60;9.00;;;;;;;-6.89;78.81;99019.77;102267;1316;74344;-19
2021/12/28 05:23:18;;;;;;;21.40;11.10;;;;;;;-7.01;79.74;99016.70;102107;1314;75309;-20
2021/12/28 05:25:47;;;;;;;16.70;7.30;;;;;;;-6.47;78.77;99018.10;102119;1314;72554;-19
2021/12/28 05:28:15;;;;;;;19.90;9.40;;;;;;;-5.91;76.93;99021.21;101957;1319;61141;-20
2021/12/28 05:30:43;;;;;;;17.60;7.10;;;;;;;-6.04;76.35;99020.75;102187;1319;61213;-19
2021/12/28 05:33:12;;;;;;;16.50;7.40;;;;;;;-6.06;76.45;99021.11;102251;1317;75343;-19
2021/12/28 05:35:41;;;;;;;23.00;11.10;;;;;;;-6.40;77.14;99021.41;102213;1317;74480;-20
2021/12/28 05:38:12;;;;;;;15.90;7.20;;;;;;;-6.62;78.00;99018.80;101965;1316;73195;-19
2021/12/28 05:40:40;;;;;;;18.70;8.60;;;;;;;-6.69;78.61;99018.89;101802;1319;61104;-19
2021/12/28 05:43:08;;;;;;;21.50;9.90;;;;;;;-6.94;79.66;99015.78;102132;1316;61763;-19
2021/12/28 05:45:36;;;;;;;26.10;11.70;;;;;;;-6.88;79.68;99020.79;102145;1317;73604;-19
2021/12/28 05:48:05;;;;;;;20.50;10.40;;;;;;;-6.06;78.03;99023.45;102165;1317;75217;-20
2021/12/28 05:50:33;;;;;;;22.40;11.30;;;;;;;-5.60;75.77;99028.70;102092;1319;74520;-20
2021/12/28 05:53:02;;;;;;;17.30;7.90;;;;;;;-5.63;75.18;99036.16;102073;1319;61119;-20
2021/12/28 05:55:31;;;;;;;14.00;8.20;;;;;;;-5.79;75.56;99037.43;101991;1320;61155;-19
2021/12/28 05:58:00;;;;;;;19.30;9.40;;;;;;;-6.08;76.43;99030.77;101670;1316;75598;-19
2021/12/28 06:00:29;;;;;;;7.90;4.10;;;;;;;-6.36;77.46;99033.86;101943;1313;76072;-20
2021/12/28 06:02:59;;;;;;;23.60;11.70;;;;;;;-6.49;77.68;99030.29;101732;1316;74576;-18
2021/12/28 06:05:28;;;;;;;17.20;8.60;;;;;;;-6.67;78.92;99034.73;102169;1316;62776;-19
2021/12/28 06:07:56;;;;;;;18.00;8.40;;;;;;;-6.09;77.97;99031.29;102146;1320;61122;-19
2021/12/28 06:10:25;;;;;;;22.60;9.10;;;;;;;-5.58;75.94;99036.79;101770;1317;278472;-19
2021/12/28 06:12:54;;;;;;;19.30;10.10;;;;;;;-5.53;75.05;99033.83;101891;1313;76129;-20
2021/12/28 06:15:23;;;;;;;19.80;9.90;;;;;;;-5.89;76.26;99032.85;101955;1316;74529;-20
2021/12/28 06:17:51;;;;;;;14.20;7.00;;;;;;;-6.39;78.27;99037.10;102052;1319;61246;-19
2021/12/28 06:20:19;;;;;;;23.50;10.60;;;;;;;-6.40;78.12;99035.09;101758;1316;61535;-19
2021/12/28 06:22:48;;;;;;;36.80;7.60;;;;;;;-6.58;78.61;99037.66;102105;1316;74799;-19
2021/12/28 06:25:16;;;;;;;21.00;8.90;;;;;;;-6.70;78.82;99039.17;101913;1319;76354;-19
2021/12/28 06:27:45;;;;;;;15.30;8.20;;;;;;;-6.46;79.26;99040.05;101839;1313;73410;-20
2021/12/28 06:30:14;;;;;;;23.40;11.20;;;;;;;-5.68;76.61;99042.86;102170;1316;61189;-20
2021/12/28 06:32:43;;;;;;;20.10;8.80;;;;;;;-5.37;74.81;99044.22;102225;1319;61218;-19
2021/12/28 06:35:12;;;;;;;20.60;10.10;;;;;;;-5.41;74.62;99042.44;102192;1320;75896;-20
2021/12/28 06:37:40;;;;;;;14.20;7.30;;;;;;;-5.82;75.67;99043.74;102248;1316;74409;-19
2021/12/28 06:40:11;;;;;;;24.00;12.40;;;;;;;-6.04;76.43;99038.99;102091;1316;73283;-20
2021/12/28 06:42:40;;;;;;;14.00;7.80;;;;;;;-6.37;77.57;99037.91;101775;1319;62158;-19
2021/12/28 06:45:08;;;;;;;16.50;9.20;;;;;;;-6.55;78.49;99042.18;101973;1316;61110;-20
2021/12/28 06:47:38;;;;;;;20.70;10.30;;;;;;;-6.57;78.56;99044.73;101585;1316;75939;-19
2021/12/28 06:50:07;;;;;;;17.30;9.50;;;;;;;-5.94;77.73;99049.84;102005;1317;75952;-19
2021/12/28 06:52:36;;;;;;;23.80;12.60;;;;;;;-5.64;76.27;99049.38;101722;1316;74547;-20
2021/12/28 06:55:06;;;;;;;23.80;11.80;;;;;;;-5.78;76.27;99041.30;101722;1316;61237;-20
2021/12/28 06:57:38;;;;;;;12.00;6.90;;;;;;;-5.89;76.75;99045.02;101741;1317;61280;-20
2021/12/28 07:00:09;;;;;;;26.00;12.70;;;;;;;-6.07;77.18;99042.58;102107;1320;74197;-19
2021/12/28 07:02:38;;;;;;;18.30;8.10;;;;;;;-6.31;77.87;99043.08;101841;1320;74580;-20
2021/12/28 07:05:07;;;;;;;13.60;7.10;;;;;;;-6.41;78.46;99042.53;101644;1320;75082;-20
2021/12/28 07:07:35;;;;;;;16.40;8.40;;;;;;;-6.54;78.91;99038.96;101601;1316;61275;-19
2021/12/28 07:10:06;;;;;;;25.50;11.30;;;;;;;-6.12;78.85;99038.09;101993;1316;61106;-19
2021/12/28 07:12:34;;;;;;;24.50;11.50;;;;;;;-5.56;76.63;99036.23;101800;1317;75433;-20
2021/12/28 07:15:05;;;;;;;20.00;8.40;;;;;;;-5.44;75.64;99036.72;102192;1314;75744;-19
2021/12/28 07:17:34;;;;;;;23.20;11.80;;;;;;;-5.61;75.88;99034.11;101891;1317;74222;-20
2021/12/28 07:20:02;;;;;;;22.10;11.30;;;;;;;-5.99;77.02;99027.77;102193;1313;61157;-20
2021/12/28 07:22:31;;;;;;;14.90;8.30;;;;;;;-6.08;77.70;99026.73;102185;1319;61149;-19
2021/12/28 07:24:59;;;;;;;24.60;10.80;;;;;;;-6.24;77.93;99033.20;102127;1314;74316;-19
2021/12/28 07:27:28;;;;;;;22.60;11.20;;;;;;;-6.51;79.16;99029.31;101748;1317;75962;-19
2021/12/28 07:29:56;;;;;;;17.10;8.50;;;;;;;-6.02;78.47;99033.54;101851;1315;74290;-19
2021/12/28 07:32:25;;;;;;;15.20;8.40;;;;;;;-5.56;76.14;99031.67;102174;1314;61293;-20
2021/12/28 07:34:53;;;;;;;18.10;9.40;;;;;;;-5.40;75.49;99031.92;102190;1314;61297;-20
2021/12/28 07:37:21;;;;;;;19.80;11.00;;;;;;;-5.51;75.88;99036.99;102017;1314;74953;-19
2021/12/28 07:39:50;;;;;;;23.10;10.60;;;;;;;-5.65;76.16;99037.06;102172;1314;75947;-20
2021/12/28 07:42:20;;;;;;;20.40;10.40;;;;;;;-5.78;76.32;99033.88;102144;1319;74429;-19
2021/12/28 07:44:49;;;;;;;20.00;10.30;;;;;;;-6.13;77.34;99032.86;101751;1320;61961;-20
2021/12/28 07:47:17;;;;;;;14.60;9.60;;;;;;;-6.20;77.55;99027.56;102103;1314;62108;-19
2021/12/28 07:49:46;;;;;;;24.10;9.10;;;;;;;-6.04;77.56;99027.50;101683;1317;75445;-19
2021/12/28 07:52:14;;;;;;;21.20;10.60;;;;;;;-5.60;76.79;99029.20;101895;1316;75788;-20
2021/12/28 07:54:42;;;;;;;13.00;6.40;;;;;;;-5.50;75.89;99030.55;101935;1313;74461;-20
2021/12/28 07:57:11;;;;;;;20.70;10.40;;;;;;;-5.49;75.41;99030.02;102073;1314;61219;-20
2021/12/28 07:59:39;;;;;;;18.30;9.50;;;;;;;-5.68;75.93;99024.08;102175;1317;61107;-20
2021/12/28 08:02:08;;;;;;;14.90;9.50;;;;;;;-5.93;76.31;99017.00;102299;1313;75429;-20
2021/12/28 08:04:36;;;;;;;14.00;7.80;;;;;;;-6.21;77.28;99012.02;102260;1314;75226;-19
2021/12/28 08:07:24;;;;;;;11.70;6.40;;;;;;;-6.17;78.18;99009.61;102087;1314;73588;-20
2021/12/28 08:10:14;;;;;;;18.00;8.60;;;;;;;-5.43;75.60;99016.89;102154;1317;62504;-20
2021/12/28 08:12:43;;;;;;;11.40;6.80;;;;;;;-5.12;74.43;99016.89;101870;1317;61169;-19
2021/12/28 08:15:11;;;;;;;16.50;7.60;;;;;;;-5.24;73.99;99013.88;102151;1314;73395;-20
2021/12/28 08:17:40;;;;;;;16.20;9.00;;;;;;;-5.41;74.85;99011.97;102152;1313;75037;-20
2021/12/28 08:20:10;;;;;;;13.90;6.40;;;;;;;-5.72;75.47;99013.14;102243;1314;74246;-20
2021/12/28 08:22:40;;;;;;;14.10;7.50;;;;;;;-5.83;76.62;99014.49;102147;1314;61271;-20
2021/12/28 08:25:10;;;;;;;22.90;10.50;;;;;;;-5.96;76.66;99013.36;102310;1314;61989;-20
2021/12/28 08:27:39;;;;;;;12.50;7.00;;;;;;;-6.05;77.27;99009.09;102011;1316;74673;-19
2021/12/28 08:30:08;;;;;;;18.20;9.50;;;;;;;-5.45;75.68;99012.04;102295;1313;76270;-20
2021/12/28 08:32:43;;;;;;;12.10;7.30;;;;;;;-4.92;74.25;99017.20;101732;1317;74012;-20
2021/12/28 08:35:12;;;;;;;14.50;9.30;;;;;;;-5.01;73.50;99015.67;102109;1313;61119;-20
2021/12/28 08:37:40;;;;;;;14.20;9.10;;;;;;;-5.18;73.47;99007.51;101766;1314;61268;-19
2021/12/28 08:40:10;;;;;;;15.60;8.50;;;;;;;-5.42;74.28;99006.92;102123;1313;75591;-19
2021/12/28 08:42:39;;;;;;;17.80;9.50;;;;;;;-5.53;75.03;99008.27;101783;1317;74456;-19
2021/12/28 08:45:09;;;;;;;15.00;7.30;;;;;;;-5.80;76.18;99007.36;102152;1314;74382;-20
2021/12/28 08:47:37;;;;;;;15.00;7.60;;;;;;;-5.86;76.23;99002.56;101772;1318;61230;-20
2021/12/28 08:50:08;;;;;;;18.00;9.00;;;;;;;-5.52;75.95;99000.46;102065;1313;61192;-19
2021/12/28 08:52:37;;;;;;;18.30;9.20;;;;;;;-5.19;74.44;99002.45;101693;1317;74955;-19
2021/12/28 08:55:11;;;;;;;19.80;10.50;;;;;;;-5.09;73.31;98998.37;102054;1316;74723;-20
2021/12/28 08:57:39;;;;;;;9.50;5.40;;;;;;;-5.24;73.88;98990.02;102030;1316;74432;-20
2021/12/28 09:00:11;;;;;;;18.20;9.40;;;;;;;-5.30;73.87;98987.92;102073;1316;61215;-19
2021/12/28 09:02:40;;;;;;;17.40;7.70;;;;;;;-5.63;75.05;98980.86;101846;1313;62471;-20
2021/12/28 09:05:09;;;;;;;17.00;7.50;;;;;;;-5.66;75.20;98984.30;101825;1317;74628;-20
2021/12/28 09:07:38;;;;;;;15.80;8.10;;;;;;;-5.81;76.06;98979.80;101777;1320;76550;-19
2021/12/28 09:10:07;;;;;;;13.20;8.10;;;;;;;-5.35;75.03;98980.39;102222;1316;72042;-20
2021/12/28 09:12:35;;;;;;;11.10;6.30;;;;;;;-4.82;72.44;98977.89;101984;1313;61252;-20
2021/12/28 09:15:14;;;;;;;11.20;6.70;;;;;;;-4.45;71.81;98976.45;102153;1314;61292;-20
2021/12/28 09:17:43;;;;;;;11.50;6.60;;;;;;;-4.57;71.20;98974.84;102139;1313;75398;-20
2021/12/28 09:20:15;;;;;;;13.20;7.20;;;;;;;-4.89;71.26;98972.27;102141;1314;75919;-19
2021/12/28 09:23:05;;;;;;;12.30;6.10;;;;;;;-5.09;72.03;98969.77;101775;1317;74401;-20
2021/12/28 09:25:36;;;;;;;10.20;6.40;;;;;;;-5.37;72.67;98968.75;101714;1316;61126;-19
2021/12/28 09:28:05;;;;;;;13.70;6.50;;;;;;;-5.43;73.07;98964.30;101796;1316;61272;-19
2021/12/28 09:30:34;;;;;;;17.80;8.40;;;;;;;-5.54;73.38;98962.63;102159;1313;74845;-19
2021/12/28 09:33:03;;;;;;;13.80;6.30;;;;;;;-5.43;73.67;98960.73;101716;1317;76120;-20
2021/12/28 09:35:31;;;;;;;7.00;4.70;;;;;;;-4.73;71.85;98962.97;102057;1313;73600;-20
2021/12/28 09:38:00;;;;;;;9.60;6.00;;;;;;;-4.44;70.24;98961.17;102256;1313;61413;-19
2021/12/28 09:40:32;;;;;;;7.70;3.90;;;;;;;-4.47;69.64;98964.31;102136;1313;61194;-20
2021/12/28 09:43:03;;;;;;;11.50;6.70;;;;;;;-4.47;69.71;98965.16;101817;1317;75656;-20
2021/12/28 09:45:33;;;;;;;9.70;6.10;;;;;;;-4.74;69.74;98963.17;102015;1313;76165;-20
2021/12/28 09:48:02;;;;;;;10.30;6.00;;;;;;;-5.11;69.69;98957.79;102079;1314;73391;-20
2021/12/28 09:50:31;;;;;;;14.10;6.00;;;;;;;-5.32;70.31;98956.83;101820;1314;61902;-19
2021/12/28 09:53:00;;;;;;;11.50;7.60;;;;;;;-5.45;70.91;98953.65;101914;1316;61161;-20
2021/12/28 09:55:29;;;;;;;12.60;6.00;;;;;;;-5.54;71.25;98957.20;101704;1317;75594;-20
2021/12/28 09:57:58;;;;;;;8.70;6.00;;;;;;;-5.60;70.81;98956.79;102044;1313;74843;-20
2021/12/28 10:00:27;;;;;;;14.70;7.30;;;;;;;-5.22;70.64;98958.83;101610;1316;74573;-20
2021/12/28 10:03:14;;;;;;;6.50;4.10;;;;;;;-4.52;68.76;98961.02;102047;1314;61045;-20
2021/12/28 10:05:51;;;;;;;8.10;4.60;;;;;;;-4.40;67.38;98956.69;101647;1313;61358;-19
2021/12/28 10:08:23;;;;;;;9.80;6.30;;;;;;;-4.59;67.78;98954.20;102007;1313;75519;-19
2021/12/28 10:10:55;;;;;;;7.90;4.30;;;;;;;-4.78;67.84;98948.17;101646;1316;74439;-20
2021/12/28 10:13:30;;;;;;;6.90;5.20;;;;;;;-4.93;68.29;98946.77;101720;1313;74526;-20
2021/12/28 10:16:00;;;;;;;11.60;6.60;;;;;;;-5.08;68.58;98948.92;101989;1311;61368;-19
2021/12/28 10:18:29;;;;;;;9.40;4.80;;;;;;;-5.30;69.33;98943.57;101800;1316;61132;-20
2021/12/28 10:20:59;;;;;;;12.10;5.40;;;;;;;-5.29;69.34;98939.66;101681;1319;74587;-20
2021/12/28 10:23:29;;;;;;;14.60;6.90;;;;;;;-5.38;69.64;98944.59;101820;1317;74968;-19
2021/12/28 10:26:00;;;;;;;15.60;7.30;;;;;;;-5.03;69.72;98943.39;101685;1320;73593;-20
2021/12/28 10:28:34;;;;;;;17.30;8.10;;;;;;;-4.26;67.93;98943.17;101651;1317;61195;-20
2021/12/28 10:31:08;;;;;;;10.10;6.10;;;;;;;-3.98;66.11;98941.68;101882;1314;61122;-20
2021/12/28 10:33:37;;;;;;;10.10;5.40;;;;;;;-4.06;65.77;98940.16;101707;1313;75713;-20
2021/12/28 10:36:14;;;;;;;8.40;4.70;;;;;;;-4.25;66.33;98944.48;101628;1316;73531;-20
2021/12/28 10:38:47;;;;;;;15.70;8.70;;;;;;;-4.46;66.91;98942.07;101757;1314;74328;-20
2021/12/28 10:41:18;;;;;;;8.70;5.20;;;;;;;-4.70;67.58;98940.39;101785;1317;61095;-20
2021/12/28 10:43:55;;;;;;;11.80;6.30;;;;;;;-4.99;68.24;98938.58;101746;1313;61227;-20
2021/12/28 10:46:25;;;;;;;11.70;7.00;;;;;;;-5.09;68.10;98935.23;102055;1316;73862;-20
2021/12/28 10:48:56;;;;;;;19.20;8.80;;;;;;;-5.08;68.09;98940.11;101762;1314;75933;-20
2021/12/28 10:51:29;;;;;;;;;;;;;;;-5.22;69.26;98939.88;101697;1319;74478;-17
2021/12/28 10:56:41;;;;;;;14.00;7.20;;;;;;;-5.37;69.12;98938.13;101969;1313;61186;-20
2021/12/28 10:59:10;;;;;;;12.70;6.80;;;;;;;-5.30;70.01;98935.45;102252;1313;75671;-19
2021/12/28 11:01:39;;;;;;;16.50;7.80;;;;;;;-4.57;69.64;98939.94;101950;1316;76089;-20
2021/12/28 11:04:10;;;;;;;14.00;6.70;;;;;;;-3.90;67.40;98934.52;102048;1314;74543;-20
2021/12/28 11:06:43;;;;;;;16.00;9.00;;;;;;;-3.98;65.65;98932.18;101695;1316;61924;-20
2021/12/28 11:09:12;;;;;;;;;;;;;;;-4.06;66.17;98930.16;101745;1316;61240;-17
2021/12/28 11:11:42;;;;;;;13.00;6.30;;;;;;;-4.14;66.13;98933.23;102081;1313;73472;-19
2021/12/28 11:14:14;;;;;;;11.50;6.30;;;;;;;-4.49;66.92;98930.09;102044;1313;76420;-20
2021/12/28 11:16:56;;;;;;;8.00;4.60;;;;;;;-4.59;67.08;98933.20;101619;1316;74582;-20
2021/12/28 11:19:28;;;;;;;11.20;7.20;;;;;;;-4.69;67.12;98929.01;101726;1316;61197;-20
2021/12/28 11:22:00;;;;;;;16.30;9.60;;;;;;;-4.81;67.73;98927.20;101667;1316;62665;-20
2021/12/28 11:24:33;;;;;;;12.00;6.10;;;;;;;-5.00;68.80;98931.67;101693;1314;72485;-20
2021/12/28 11:27:02;;;;;;;13.10;7.80;;;;;;;-4.98;68.19;98929.59;101762;1320;73525;-19
2021/12/28 11:29:50;;;;;;;11.00;7.50;;;;;;;-5.04;68.64;98924.27;101736;1316;73489;-20
2021/12/28 11:32:20;;;;;;;20.30;8.60;;;;;;;-5.31;69.23;98921.76;102164;1313;62440;-19
2021/12/28 11:34:48;;;;;;;9.10;5.10;;;;;;;-5.20;69.19;98915.45;102026;1313;61183;-20
2021/12/28 11:37:20;;;;;;;21.20;10.60;;;;;;;-5.13;70.21;98908.39;101985;1313;75404;-19
2021/12/28 11:39:57;;;;;;;15.30;8.60;;;;;;;-4.54;69.75;98907.67;101688;1317;76132;-19